Item Display Status Humidity-temperature Sensor

Elevation Above Sea Level: 3 m

 

Deployed Sensor

  • Serial Number: 20661650
  • NDBC Property Number: 45975
  • Start Date: 5/15/2023 (14:15:27 Z)
  • End Date: Currently Active
Relative Humidity [%]     6 entries per hour
Showing data from 6/14/2024 (02:00:00 Z) to 6/13/2024 (00:00:01 Z)
Previous Next [ Day | 3-Days | 7-Days ]
First Last
Prev [ Day | 3-Days | 7-Days ] Next
First Last

Start Time:     :
End Time:     :     
Time (in GMT) :00 :50 :40 :30 :20 :10
Previous Next [ Day | 3-Days | 7-Days ]
First Last
Prev [ Day | 3-Days | 7-Days ] Next
First Last


123 => good data
MM => data is determined as missing
-- => data not received/configured
Back to Top Back to Top
6/14/2024 02:00 to 1:10 74.29 73.56 71.79 71.97 71.28 69.73
6/14/2024 01:00 to 0:10 73.20 72.11 74.10 73.70 74.35 74.24
6/14/2024 00:00 to 23:10 74.04 75.80 80.93 82.66 82.08 81.25
6/13/2024 23:00 to 22:10 81.29 82.22 80.89 81.43 81.25 81.55
6/13/2024 22:00 to 21:10 81.23 82.88 82.02 80.99 80.63 80.71
6/13/2024 21:00 to 20:10 81.29 81.72 81.43 80.19 81.43 80.87
6/13/2024 20:00 to 19:10 79.46 80.31 83.75 85.02 84.45 82.90
6/13/2024 19:00 to 18:10 83.79 84.82 85.40 86.81 87.60 89.09
6/13/2024 18:00 to 17:10 88.30 86.69 87.58 87.07 86.79 85.30
6/13/2024 17:00 to 16:10 85.80 87.03 87.21 86.77 85.10 79.42
6/13/2024 16:00 to 15:10 78.90 78.96 79.62 79.28 78.15 78.76
6/13/2024 15:00 to 14:10 79.04 79.44 79.38 78.31 78.74 79.40
6/13/2024 14:00 to 13:10 79.74 79.08 79.30 78.31 78.29 79.30
6/13/2024 13:00 to 12:10 79.04 79.72 78.15 79.00 78.69 78.84
6/13/2024 12:00 to 11:10 79.42 79.12 79.58 79.58 79.44 79.10
6/13/2024 11:00 to 10:10 79.46 78.43 78.63 78.86 78.03 78.01
6/13/2024 10:00 to 9:10 77.41 77.33 76.68 77.47 76.36 76.26
6/13/2024 09:00 to 8:10 76.34 77.10 75.78 77.39 76.02 76.36
6/13/2024 08:00 to 7:10 77.29 75.43 75.96 74.85 74.87 75.92
6/13/2024 07:00 to 6:10 74.97 75.86 76.34 74.97 72.31 72.61
6/13/2024 06:00 to 5:10 71.51 74.12 76.70 77.55 73.32 77.43
6/13/2024 05:00 to 4:10 76.70 76.40 75.27 75.94 76.38 75.90
6/13/2024 04:00 to 3:10 75.96 76.06 75.15 75.33 80.45 78.37
6/13/2024 03:00 to 2:10 78.84 77.91 79.78 80.79 79.06 77.59
6/13/2024 02:00 to 1:10 77.12 77.85 78.69 79.40 79.22 78.53
6/13/2024 01:00 to 0:10 78.07 76.62 76.66 77.61 76.98 77.95

 

 

 

Air Temperature [°C]     6 entries per hour
Showing data from 6/14/2024 (02:00:00 Z) to 6/13/2024 (00:00:01 Z)
Previous Next [ Day | 3-Days | 7-Days ]
First Last
Prev [ Day | 3-Days | 7-Days ] Next
First Last

Start Time:     :
End Time:     :     
Time (in GMT) :00 :50 :40 :30 :20 :10
Previous Next [ Day | 3-Days | 7-Days ]
First Last
Prev [ Day | 3-Days | 7-Days ] Next
First Last


123 => good data
MM => data is determined as missing
-- => data not received/configured
Back to Top Back to Top
6/14/2024 02:00 to 1:10 29.93 29.99 29.85 29.87 29.82 29.61
6/14/2024 01:00 to 0:10 29.85 29.77 29.71 29.67 29.77 29.97
6/14/2024 00:00 to 23:10 29.78 29.56 29.38 29.34 29.36 29.34
6/13/2024 23:00 to 22:10 29.38 29.33 29.20 29.22 29.30 29.28
6/13/2024 22:00 to 21:10 29.12 29.04 29.32 29.45 29.31 29.33
6/13/2024 21:00 to 20:10 29.20 29.00 29.07 29.19 28.93 29.13
6/13/2024 20:00 to 19:10 29.03 28.82 28.51 28.45 28.37 28.23
6/13/2024 19:00 to 18:10 28.32 28.20 28.04 27.93 27.55 27.34
6/13/2024 18:00 to 17:10 27.69 27.05 27.48 27.52 27.73 28.35
6/13/2024 17:00 to 16:10 28.19 28.10 28.36 28.26 28.60 29.60
6/13/2024 16:00 to 15:10 29.45 29.38 29.45 29.44 29.41 29.44
6/13/2024 15:00 to 14:10 29.44 29.66 29.52 29.52 29.46 29.49
6/13/2024 14:00 to 13:10 29.52 29.45 29.64 29.61 29.55 29.67
6/13/2024 13:00 to 12:10 29.55 29.62 29.62 29.73 29.60 29.63
6/13/2024 12:00 to 11:10 29.62 29.78 29.75 29.62 29.86 29.65
6/13/2024 11:00 to 10:10 29.71 29.65 29.73 29.77 29.70 29.79
6/13/2024 10:00 to 9:10 29.74 29.78 29.72 29.77 29.87 29.92
6/13/2024 09:00 to 8:10 29.80 29.95 29.84 29.99 29.77 29.92
6/13/2024 08:00 to 7:10 29.94 29.89 29.99 29.94 29.92 29.91
6/13/2024 07:00 to 6:10 30.02 29.95 30.02 30.03 30.21 30.28
6/13/2024 06:00 to 5:10 30.35 30.03 30.27 30.21 30.28 30.12
6/13/2024 05:00 to 4:10 30.05 30.10 30.11 30.10 30.18 30.16
6/13/2024 04:00 to 3:10 30.18 30.16 30.19 30.03 30.12 30.00
6/13/2024 03:00 to 2:10 30.16 29.90 29.92 30.03 30.16 30.09
6/13/2024 02:00 to 1:10 30.20 30.09 30.09 30.01 30.00 29.93
6/13/2024 01:00 to 0:10 30.01 30.03 30.05 30.03 30.09 30.09